Time;durP1;ratioP1;P1;durP2;ratioP2;P2;SDS_P1;SDS_P2;PMS_P1;PMS_P2;Temp;Humidity;BMP_temperature;BMP_pressure;BME280_temperature;BME280_humidity;BME280_pressure;Samples;Min_cycle;Max_cycle;Signal;HPM_P1;HPM_P2
2022/05/02 00:02:20;;;;;;;9.48;4.72;;;;;;;;;;5080723;28;20021;-80
2022/05/02 00:04:46;;;;;;;6.07;4.30;;;;;;;;;;5075737;28;20035;-80
2022/05/02 00:07:11;;;;;;;8.73;4.38;;;;;;;;;;5075721;28;20490;-80
2022/05/02 00:09:37;;;;;;;8.63;3.90;;;;;;;;;;5074626;28;20058;-80
2022/05/02 00:12:03;;;;;;;6.10;4.13;;;;;;;;;;5075599;28;20369;-80
2022/05/02 00:14:28;;;;;;;6.82;4.18;;;;;;;;;;5074815;28;20029;-80
2022/05/02 00:16:53;;;;;;;9.25;4.82;;;;;;;;;;5075666;28;20126;-80
2022/05/02 00:19:19;;;;;;;7.47;4.65;;;;;;;;;;5074723;28;20035;-79
2022/05/02 00:21:44;;;;;;;6.82;4.70;;;;;;;;;;5081123;28;20024;-80
2022/05/02 00:24:10;;;;;;;12.70;4.78;;;;;;;;;;5075543;28;20063;-79
2022/05/02 00:26:35;;;;;;;8.18;4.63;;;;;;;;;;5090905;28;20047;-79
2022/05/02 00:29:01;;;;;;;8.90;4.80;;;;;;;;;;5075243;28;20342;-79
2022/05/02 00:31:26;;;;;;;8.40;4.57;;;;;;;;;;5074133;28;20063;-79
2022/05/02 00:33:52;;;;;;;10.32;5.63;;;;;;;;;;5075260;28;20368;-80
2022/05/02 00:36:17;;;;;;;9.25;5.18;;;;;;;;;;5075146;28;20032;-79
2022/05/02 00:38:43;;;;;;;6.40;4.15;;;;;;;;;;5074031;28;20025;-79
2022/05/02 00:41:09;;;;;;;6.75;4.70;;;;;;;;;;5075728;28;20433;-83
2022/05/02 00:43:34;;;;;;;8.43;4.85;;;;;;;;;;5059271;28;20173;-82
2022/05/02 00:46:00;;;;;;;10.38;4.75;;;;;;;;;;5074866;28;20048;-82
2022/05/02 00:48:25;;;;;;;7.95;5.28;;;;;;;;;;5074953;28;20033;-82
2022/05/02 00:50:51;;;;;;;9.13;4.93;;;;;;;;;;5075444;28;20033;-79
2022/05/02 00:53:20;;;;;;;7.07;4.53;;;;;;;;;;5075153;28;20032;-80
2022/05/02 00:55:46;;;;;;;9.68;5.55;;;;;;;;;;5074844;28;20063;-82
2022/05/02 00:58:13;;;;;;;8.90;4.88;;;;;;;;;;5073592;28;20129;-82
2022/05/02 01:00:39;;;;;;;8.85;5.15;;;;;;;;;;5073401;28;20045;-79
2022/05/02 01:03:06;;;;;;;8.82;5.10;;;;;;;;;;5076241;28;20044;-79
2022/05/02 01:05:33;;;;;;;7.50;4.78;;;;;;;;;;5073384;28;20139;-79
2022/05/02 01:08:00;;;;;;;9.23;5.13;;;;;;;;;;5073517;28;20218;-79
2022/05/02 01:10:26;;;;;;;7.82;4.97;;;;;;;;;;5073287;28;20111;-79
2022/05/02 01:12:52;;;;;;;8.93;5.13;;;;;;;;;;5073416;28;20029;-82
2022/05/02 01:15:17;;;;;;;8.52;4.68;;;;;;;;;;5074579;28;20421;-79
2022/05/02 01:17:44;;;;;;;11.05;4.90;;;;;;;;;;5074525;28;20059;-79
2022/05/02 01:20:11;;;;;;;8.07;5.35;;;;;;;;;;5073458;28;20062;-79
2022/05/02 01:22:36;;;;;;;15.35;5.80;;;;;;;;;;5078192;28;20028;-79
2022/05/02 01:25:02;;;;;;;12.52;5.43;;;;;;;;;;5075401;28;20028;-79
2022/05/02 01:27:27;;;;;;;12.82;5.70;;;;;;;;;;5073028;28;20064;-80
2022/05/02 01:29:53;;;;;;;8.38;5.22;;;;;;;;;;5074004;28;20039;-79
2022/05/02 01:32:18;;;;;;;10.02;5.60;;;;;;;;;;5073148;28;20032;-79
2022/05/02 01:34:44;;;;;;;10.93;5.60;;;;;;;;;;5074532;28;20501;-80
2022/05/02 01:37:11;;;;;;;11.10;5.05;;;;;;;;;;5072832;28;20039;-79
2022/05/02 01:39:37;;;;;;;8.77;5.53;;;;;;;;;;5056725;28;20039;-79
2022/05/02 01:42:04;;;;;;;11.45;5.53;;;;;;;;;;5075998;28;20029;-82
2022/05/02 01:44:29;;;;;;;10.15;5.57;;;;;;;;;;5075178;28;20029;-79
2022/05/02 01:46:55;;;;;;;9.25;5.55;;;;;;;;;;5072720;28;20119;-80
2022/05/02 01:49:21;;;;;;;7.88;5.13;;;;;;;;;;5074410;28;20415;-80
2022/05/02 01:51:46;;;;;;;10.40;6.10;;;;;;;;;;5072734;28;20476;-79
2022/05/02 01:54:12;;;;;;;9.90;5.07;;;;;;;;;;5077667;28;20461;-79
2022/05/02 01:56:37;;;;;;;13.80;5.45;;;;;;;;;;5083009;28;20349;-79
2022/05/02 01:59:06;;;;;;;13.63;5.90;;;;;;;;;;5082342;28;20024;-79
2022/05/02 02:01:31;;;;;;;12.93;5.78;;;;;;;;;;5081662;28;20049;-81
2022/05/02 02:05:48;;;;;;;10.73;5.57;;;;;;;;;;5081860;28;20036;-81
2022/05/02 02:06:47;;;;;;;10.13;5.88;;;;;;;;;;5078663;28;20028;-82
2022/05/02 02:09:12;;;;;;;11.00;5.88;;;;;;;;;;5074185;28;20512;-82
2022/05/02 02:11:37;;;;;;;12.10;6.38;;;;;;;;;;5074190;28;20078;-82
2022/05/02 02:14:03;;;;;;;12.10;5.57;;;;;;;;;;5073965;28;20032;-79
2022/05/02 02:16:28;;;;;;;12.23;6.40;;;;;;;;;;5073870;28;20354;-80
2022/05/02 02:18:54;;;;;;;11.35;5.78;;;;;;;;;;5073767;28;20031;-80
2022/05/02 02:21:19;;;;;;;10.95;6.38;;;;;;;;;;5073708;28;20020;-79
2022/05/02 02:23:45;;;;;;;9.80;5.95;;;;;;;;;;5076127;28;20021;-79
2022/05/02 02:26:10;;;;;;;9.90;5.63;;;;;;;;;;5057278;28;20037;-79
2022/05/02 02:28:38;;;;;;;14.50;6.72;;;;;;;;;;5073693;28;20025;-79
2022/05/02 02:31:03;;;;;;;11.52;5.93;;;;;;;;;;5073921;28;20442;-79
2022/05/02 02:33:29;;;;;;;11.25;6.35;;;;;;;;;;5073672;28;20091;-79
2022/05/02 02:35:54;;;;;;;19.75;6.63;;;;;;;;;;5072511;28;20346;-79
2022/05/02 02:38:19;;;;;;;15.30;7.00;;;;;;;;;;5073632;28;20338;-79
2022/05/02 02:40:45;;;;;;;13.95;6.88;;;;;;;;;;5073651;28;20064;-80
2022/05/02 02:43:10;;;;;;;14.15;6.93;;;;;;;;;;5091464;28;20029;-78
2022/05/02 02:45:36;;;;;;;12.90;7.10;;;;;;;;;;5082947;28;20432;-80
2022/05/02 02:48:02;;;;;;;11.25;7.00;;;;;;;;;;5076350;28;20036;-80
2022/05/02 02:50:28;;;;;;;13.05;6.72;;;;;;;;;;5077181;28;20028;-80
2022/05/02 02:52:53;;;;;;;13.48;6.22;;;;;;;;;;5077165;28;20020;-79
2022/05/02 02:55:19;;;;;;;9.77;6.20;;;;;;;;;;5077036;28;20441;-79
2022/05/02 02:57:44;;;;;;;17.80;6.90;;;;;;;;;;5059504;28;20353;-80
2022/05/02 03:00:10;;;;;;;10.82;5.75;;;;;;;;;;5076980;28;20120;-79
2022/05/02 03:02:37;;;;;;;14.90;6.68;;;;;;;;;;5076143;28;20035;-79
2022/05/02 03:07:47;;;;;;;12.65;6.75;;;;;;;;;;5076809;28;20073;-80
2022/05/02 03:10:12;;;;;;;11.95;6.95;;;;;;;;;;5076825;28;20119;-80
2022/05/02 03:12:38;;;;;;;10.40;6.63;;;;;;;;;;5076700;28;20025;-80
2022/05/02 03:15:04;;;;;;;13.27;6.22;;;;;;;;;;5075833;28;20032;-80
2022/05/02 03:17:30;;;;;;;11.88;6.18;;;;;;;;;;5075424;28;20040;-80
2022/05/02 03:19:55;;;;;;;13.18;6.57;;;;;;;;;;5075467;28;20024;-80
2022/05/02 03:22:21;;;;;;;11.15;6.32;;;;;;;;;;5076865;28;20055;-79
2022/05/02 03:24:46;;;;;;;11.68;6.90;;;;;;;;;;5077255;28;20032;-80
2022/05/02 03:27:12;;;;;;;10.82;6.20;;;;;;;;;;5076600;28;20039;-80
2022/05/02 03:29:37;;;;;;;10.38;6.40;;;;;;;;;;5076787;28;20365;-80
2022/05/02 03:32:03;;;;;;;11.38;6.32;;;;;;;;;;5076457;28;20032;-79
2022/05/02 03:34:29;;;;;;;14.10;5.68;;;;;;;;;;5076100;28;20441;-80
2022/05/02 03:37:14;;;;;;;11.52;6.22;;;;;;;;;;5076303;28;20037;-80
2022/05/02 03:39:39;;;;;;;10.40;6.25;;;;;;;;;;5076230;28;20025;-79
2022/05/02 03:42:05;;;;;;;10.80;5.35;;;;;;;;;;5076231;28;20035;-80
2022/05/02 03:44:30;;;;;;;10.77;5.80;;;;;;;;;;5058644;28;20036;-80
2022/05/02 03:46:56;;;;;;;15.63;6.07;;;;;;;;;;5079786;28;20040;-80
2022/05/02 03:49:21;;;;;;;11.70;5.35;;;;;;;;;;5076548;28;20173;-80
2022/05/02 03:51:47;;;;;;;11.85;6.35;;;;;;;;;;5076287;28;20041;-80
2022/05/02 03:54:12;;;;;;;13.45;6.18;;;;;;;;;;5074742;28;20469;-80
2022/05/02 03:56:38;;;;;;;12.02;6.78;;;;;;;;;;5076104;28;20044;-80
2022/05/02 03:59:03;;;;;;;11.57;6.47;;;;;;;;;;5075955;28;20421;-80
2022/05/02 04:01:29;;;;;;;11.45;6.25;;;;;;;;;;5074571;28;20040;-80
2022/05/02 04:03:54;;;;;;;15.75;7.35;;;;;;;;;;5075808;28;20064;-80
2022/05/02 04:06:20;;;;;;;13.57;7.20;;;;;;;;;;5078267;28;20441;-81
2022/05/02 04:08:46;;;;;;;11.85;6.53;;;;;;;;;;5075107;28;20032;-80
2022/05/02 04:11:11;;;;;;;11.45;6.38;;;;;;;;;;5075695;28;20441;-80
2022/05/02 04:13:37;;;;;;;12.10;6.40;;;;;;;;;;5075508;28;20036;-79
2022/05/02 04:16:02;;;;;;;10.02;6.10;;;;;;;;;;5075678;28;20031;-80
2022/05/02 04:18:28;;;;;;;13.77;6.75;;;;;;;;;;5075285;28;20032;-80
2022/05/02 04:20:53;;;;;;;13.45;6.85;;;;;;;;;;5075582;28;20105;-79
2022/05/02 04:23:19;;;;;;;10.57;5.90;;;;;;;;;;5091071;28;20091;-80
2022/05/02 04:25:44;;;;;;;11.13;6.43;;;;;;;;;;5074177;28;20040;-79
2022/05/02 04:28:11;;;;;;;8.57;5.80;;;;;;;;;;5078835;28;20166;-80
2022/05/02 04:30:37;;;;;;;10.00;5.85;;;;;;;;;;5075136;28;20029;-80
2022/05/02 04:33:03;;;;;;;10.35;6.75;;;;;;;;;;5073799;28;20031;-80
2022/05/02 04:35:29;;;;;;;10.73;5.93;;;;;;;;;;5075175;28;20032;-80
2022/05/02 04:37:54;;;;;;;11.40;6.20;;;;;;;;;;5075194;28;20117;-79
2022/05/02 04:40:19;;;;;;;9.30;5.57;;;;;;;;;;5074027;28;20366;-80
2022/05/02 04:42:45;;;;;;;7.30;5.18;;;;;;;;;;5075115;28;20035;-80
2022/05/02 04:45:11;;;;;;;10.63;5.88;;;;;;;;;;5074211;28;20437;-79
2022/05/02 04:47:37;;;;;;;8.95;5.25;;;;;;;;;;5076233;28;20029;-80
2022/05/02 04:50:03;;;;;;;17.15;6.47;;;;;;;;;;5074961;28;20089;-80
2022/05/02 04:52:29;;;;;;;9.65;6.18;;;;;;;;;;5074973;28;20028;-80
2022/05/02 04:54:54;;;;;;;11.45;5.90;;;;;;;;;;5073648;28;20028;-81
2022/05/02 04:57:20;;;;;;;10.57;5.60;;;;;;;;;;5090428;28;20074;-80
2022/05/02 04:59:45;;;;;;;16.52;5.97;;;;;;;;;;5074782;28;20028;-81
2022/05/02 05:02:11;;;;;;;9.40;6.18;;;;;;;;;;5074489;28;20035;-80
2022/05/02 05:04:36;;;;;;;10.55;5.35;;;;;;;;;;5073769;28;20506;-81
2022/05/02 05:07:02;;;;;;;7.45;5.15;;;;;;;;;;5081748;28;20400;-82
2022/05/02 05:09:27;;;;;;;9.05;5.47;;;;;;;;;;5073447;28;20020;-81
2022/05/02 05:12:14;;;;;;;8.35;5.30;;;;;;;;;;5074537;28;20082;-82
2022/05/02 05:18:17;;;;;;;10.07;5.45;;;;;;;;;;5032470;28;20079;-81
2022/05/02 05:21:05;;;;;;;9.30;5.60;;;;;;;;;;5073311;28;20033;-82
2022/05/02 05:24:15;;;;;;;7.75;5.22;;;;;;;;;;5057622;28;20090;-81
2022/05/02 05:27:08;;;;;;;8.80;5.70;;;;;;;;;;5055628;28;20067;-81
2022/05/02 05:30:04;;;;;;;7.28;4.80;;;;;;;;;;5075853;28;20040;-82
2022/05/02 05:33:00;;;;;;;8.85;5.70;;;;;;;;;;5074191;28;20033;-82
2022/05/02 05:35:46;;;;;;;7.38;5.72;;;;;;;;;;5074822;28;20029;-81
2022/05/02 05:38:31;;;;;;;10.27;5.72;;;;;;;;;;5073006;28;20039;-81
2022/05/02 05:41:05;;;;;;;8.18;5.15;;;;;;;;;;5073030;28;20048;-81
2022/05/02 05:43:56;;;;;;;8.45;5.65;;;;;;;;;;5072774;28;20036;-80
2022/05/02 05:46:56;;;;;;;8.55;5.50;;;;;;;;;;5074013;28;20044;-81
2022/05/02 05:49:34;;;;;;;8.07;5.25;;;;;;;;;;5074011;28;21084;-82
2022/05/02 05:52:15;;;;;;;7.97;5.40;;;;;;;;;;5074154;28;20021;-81
2022/05/02 05:54:55;;;;;;;10.32;5.97;;;;;;;;;;5072969;28;20035;-82
2022/05/02 05:57:52;;;;;;;8.70;5.50;;;;;;;;;;5073997;28;20239;-81
2022/05/02 06:00:20;;;;;;;6.75;5.30;;;;;;;;;;5072842;28;20045;-82
2022/05/02 06:03:14;;;;;;;7.25;5.30;;;;;;;;;;5073974;28;20040;-81
2022/05/02 06:05:47;;;;;;;8.05;5.03;;;;;;;;;;5074167;28;20463;-83
2022/05/02 06:08:22;;;;;;;6.75;5.03;;;;;;;;;;5079874;28;20063;-83
2022/05/02 06:10:50;;;;;;;7.40;5.30;;;;;;;;;;5074217;28;20034;-81
2022/05/02 06:13:17;;;;;;;8.25;5.68;;;;;;;;;;5072604;28;20031;-82
2022/05/02 06:18:35;;;;;;;7.80;4.85;;;;;;;;;;5076722;28;20090;-81
2022/05/02 06:21:05;;;;;;;6.35;5.05;;;;;;;;;;5076577;28;20086;-82
2022/05/02 06:23:45;;;;;;;9.32;4.93;;;;;;;;;;5076539;28;20035;-82
2022/05/02 06:26:11;;;;;;;7.75;4.72;;;;;;;;;;5060521;28;20051;-84
2022/05/02 06:28:41;;;;;;;8.10;4.72;;;;;;;;;;5080318;28;20029;-83
2022/05/02 06:31:11;;;;;;;11.30;5.20;;;;;;;;;;5076525;28;20032;-83
2022/05/02 06:33:37;;;;;;;12.35;5.30;;;;;;;;;;5076378;28;20050;-81
2022/05/02 06:36:25;;;;;;;6.43;4.72;;;;;;;;;;5076328;28;20465;-82
2022/05/02 06:39:04;;;;;;;6.82;4.72;;;;;;;;;;5077445;28;20062;-82
2022/05/02 06:41:41;;;;;;;10.52;4.80;;;;;;;;;;5059743;28;20027;-83
2022/05/02 06:44:21;;;;;;;7.68;4.80;;;;;;;;;;5077367;28;20024;-82
2022/05/02 06:47:15;;;;;;;10.30;4.80;;;;;;;;;;5078736;28;20036;-82
2022/05/02 06:49:42;;;;;;;9.32;4.13;;;;;;;;;;5059416;28;20071;-81
2022/05/02 06:52:11;;;;;;;8.75;3.95;;;;;;;;;;5059593;28;20029;-84
2022/05/02 06:55:21;;;;;;;5.65;3.92;;;;;;;;;;5076052;28;20373;-83
2022/05/02 06:58:11;;;;;;;6.25;4.22;;;;;;;;;;5023301;28;20034;-81
2022/05/02 07:00:39;;;;;;;7.05;4.18;;;;;;;;;;5076932;28;20036;-81
2022/05/02 07:03:20;;;;;;;5.18;4.10;;;;;;;;;;5075957;28;20072;-82
2022/05/02 07:05:55;;;;;;;5.03;3.80;;;;;;;;;;5078956;28;20028;-81
2022/05/02 07:08:29;;;;;;;6.70;4.00;;;;;;;;;;5079643;28;20047;-83
2022/05/02 07:10:58;;;;;;;4.95;3.70;;;;;;;;;;5075403;28;20358;-83
2022/05/02 07:13:33;;;;;;;4.55;3.70;;;;;;;;;;5075787;28;20039;-83
2022/05/02 07:16:23;;;;;;;5.57;3.58;;;;;;;;;;5076769;28;20077;-81
2022/05/02 07:19:13;;;;;;;7.97;3.97;;;;;;;;;;5092568;28;20037;-82
2022/05/02 07:21:58;;;;;;;4.68;3.40;;;;;;;;;;5076668;28;20028;-83
2022/05/02 07:24:41;;;;;;;4.70;3.58;;;;;;;;;;5075443;28;20032;-82
2022/05/02 07:27:45;;;;;;;5.53;3.45;;;;;;;;;;5081353;28;20037;-84
2022/05/02 07:30:10;;;;;;;4.72;3.35;;;;;;;;;;5055083;28;20182;-82
2022/05/02 07:32:36;;;;;;;6.30;3.40;;;;;;;;;;5075463;28;20501;-83
2022/05/02 07:35:01;;;;;;;5.40;3.33;;;;;;;;;;5075363;28;20024;-82
2022/05/02 07:37:27;;;;;;;4.72;3.15;;;;;;;;;;5075201;28;20107;-83
2022/05/02 07:39:52;;;;;;;4.05;3.38;;;;;;;;;;5075030;28;20400;-84
2022/05/02 07:42:18;;;;;;;4.10;3.08;;;;;;;;;;5076248;28;20031;-82
2022/05/02 07:44:44;;;;;;;3.03;2.60;;;;;;;;;;5076285;28;20024;-83
2022/05/02 07:47:11;;;;;;;3.50;2.78;;;;;;;;;;5080159;28;20037;-84
2022/05/02 07:49:37;;;;;;;4.13;2.90;;;;;;;;;;5076058;28;20435;-84
2022/05/02 07:52:03;;;;;;;3.88;2.90;;;;;;;;;;5075262;28;20107;-82
2022/05/02 07:54:30;;;;;;;2.95;2.42;;;;;;;;;;5075174;28;20357;-83
2022/05/02 07:56:57;;;;;;;5.13;2.88;;;;;;;;;;5076009;28;20036;-83
2022/05/02 07:59:30;;;;;;;4.85;2.85;;;;;;;;;;5074987;28;20027;-82
2022/05/02 08:01:56;;;;;;;5.95;2.72;;;;;;;;;;5058185;28;20036;-82
2022/05/02 08:04:22;;;;;;;6.38;2.78;;;;;;;;;;5074719;28;20453;-83
2022/05/02 08:07:02;;;;;;;3.55;2.75;;;;;;;;;;5076667;28;20039;-84
2022/05/02 08:10:02;;;;;;;6.63;2.58;;;;;;;;;;5077576;28;20066;-83
2022/05/02 08:13:05;;;;;;;5.07;2.42;;;;;;;;;;5074524;28;20036;-84
2022/05/02 08:15:52;;;;;;;3.50;2.90;;;;;;;;;;5076073;28;20036;-81
2022/05/02 08:19:12;;;;;;;3.85;2.53;;;;;;;;;;5076202;28;20082;-83
2022/05/02 08:21:38;;;;;;;;;;;;;;;;;;5033992;28;20399;-82
2022/05/02 08:27:22;;;;;;;3.50;2.42;;;;;;;;;;5077744;28;20039;-82
2022/05/02 08:29:54;;;;;;;5.30;2.20;;;;;;;;;;5079165;28;20028;-83
2022/05/02 08:32:23;;;;;;;5.88;2.58;;;;;;;;;;5075305;28;20052;-81
2022/05/02 08:34:58;;;;;;;4.63;2.30;;;;;;;;;;5075156;28;20353;-83
2022/05/02 08:37:26;;;;;;;4.55;2.35;;;;;;;;;;5073918;28;20074;-82
2022/05/02 08:40:04;;;;;;;2.88;2.30;;;;;;;;;;5074351;28;20029;-84
2022/05/02 08:42:48;;;;;;;2.65;2.10;;;;;;;;;;5075270;28;20021;-81
2022/05/02 08:45:22;;;;;;;3.47;2.20;;;;;;;;;;5074798;28;20044;-84
2022/05/02 08:48:09;;;;;;;5.53;2.17;;;;;;;;;;5077787;28;20013;-83
2022/05/02 08:50:59;;;;;;;3.28;2.20;;;;;;;;;;5077405;28;20043;-84
2022/05/02 08:53:43;;;;;;;3.70;2.45;;;;;;;;;;5073598;28;20025;-84
2022/05/02 08:56:15;;;;;;;5.05;2.40;;;;;;;;;;5074867;28;20457;-84
2022/05/02 08:59:08;;;;;;;2.88;2.17;;;;;;;;;;5073849;28;20090;-82
2022/05/02 09:02:07;;;;;;;4.93;2.40;;;;;;;;;;5073702;28;20378;-83
2022/05/02 09:04:53;;;;;;;3.67;2.35;;;;;;;;;;5073613;28;20029;-83
2022/05/02 09:07:26;;;;;;;4.45;2.03;;;;;;;;;;5074490;28;20032;-82
2022/05/02 09:10:28;;;;;;;3.92;2.00;;;;;;;;;;5082314;28;20058;-84
2022/05/02 09:13:26;;;;;;;5.28;2.10;;;;;;;;;;5073322;28;20032;-83
2022/05/02 09:16:15;;;;;;;4.72;1.92;;;;;;;;;;5040202;28;20047;-81
2022/05/02 09:19:00;;;;;;;2.78;1.98;;;;;;;;;;5073254;28;20055;-81
2022/05/02 09:21:54;;;;;;;4.75;2.30;;;;;;;;;;5073320;28;20231;-83
2022/05/02 09:24:38;;;;;;;3.67;2.42;;;;;;;;;;5073354;28;20090;-84
2022/05/02 09:27:41;;;;;;;2.95;2.17;;;;;;;;;;5074259;28;20036;-82
2022/05/02 09:30:44;;;;;;;3.33;2.30;;;;;;;;;;5083652;28;20413;-83
2022/05/02 09:33:25;;;;;;;2.80;2.15;;;;;;;;;;5074551;28;20111;-83
2022/05/02 09:35:52;;;;;;;3.25;2.15;;;;;;;;;;5073009;28;20035;-81
2022/05/02 09:38:25;;;;;;;4.20;2.20;;;;;;;;;;5074396;28;20029;-81
2022/05/02 09:41:01;;;;;;;5.32;2.10;;;;;;;;;;5073376;28;20350;-83
2022/05/02 09:50:11;;;;;;;2.97;1.85;;;;;;;;;;5081303;28;20116;-82
2022/05/02 09:53:14;;;;;;;4.75;1.83;;;;;;;;;;5074409;28;20101;-83
2022/05/02 09:58:54;;;;;;;3.28;2.08;;;;;;;;;;5073117;28;20043;-83
2022/05/02 10:01:25;;;;;;;1.92;1.65;;;;;;;;;;5072880;28;20118;-82
2022/05/02 10:04:28;;;;;;;4.05;1.75;;;;;;;;;;5089982;28;20177;-83
2022/05/02 10:06:54;;;;;;;4.68;1.92;;;;;;;;;;5074500;28;20101;-83
2022/05/02 10:09:42;;;;;;;2.47;1.52;;;;;;;;;;5075190;28;20029;-81
2022/05/02 10:12:20;;;;;;;4.43;1.50;;;;;;;;;;5077626;28;20460;-82
2022/05/02 10:15:20;;;;;;;3.05;1.60;;;;;;;;;;5072901;28;20437;-82
2022/05/02 10:18:05;;;;;;;3.40;1.70;;;;;;;;;;5072533;28;20079;-81
2022/05/02 10:20:57;;;;;;;2.45;1.85;;;;;;;;;;5074026;28;20024;-84
2022/05/02 10:23:47;;;;;;;2.70;1.65;;;;;;;;;;5052464;28;20033;-82
2022/05/02 10:26:18;;;;;;;4.63;1.83;;;;;;;;;;5073661;28;20520;-83
2022/05/02 10:29:02;;;;;;;2.78;1.70;;;;;;;;;;5072749;28;20353;-85
2022/05/02 10:31:28;;;;;;;2.20;1.75;;;;;;;;;;5079428;28;20032;-82
2022/05/02 10:33:54;;;;;;;3.08;1.80;;;;;;;;;;5073572;28;20039;-81
2022/05/02 10:36:22;;;;;;;5.90;2.38;;;;;;;;;;5073716;28;20111;-81
2022/05/02 10:39:06;;;;;;;7.47;2.08;;;;;;;;;;5072523;28;20123;-82
2022/05/02 10:41:52;;;;;;;2.78;1.98;;;;;;;;;;5073111;28;20028;-81
2022/05/02 10:44:17;;;;;;;4.38;1.95;;;;;;;;;;5072479;28;20060;-83
2022/05/02 10:46:44;;;;;;;1.77;1.40;;;;;;;;;;5071781;28;20087;-83
2022/05/02 10:49:22;;;;;;;3.53;1.73;;;;;;;;;;5073698;28;20036;-82
2022/05/02 10:52:20;;;;;;;7.20;1.80;;;;;;;;;;5082313;28;20024;-83
2022/05/02 10:54:50;;;;;;;4.72;1.90;;;;;;;;;;5072453;28;20468;-84
2022/05/02 10:57:31;;;;;;;2.63;1.70;;;;;;;;;;5056376;28;20032;-82
2022/05/02 11:00:01;;;;;;;2.45;1.80;;;;;;;;;;5089007;28;20043;-83
2022/05/02 11:02:58;;;;;;;2.33;1.80;;;;;;;;;;5072388;28;20033;-81
2022/05/02 11:05:28;;;;;;;1.80;1.70;;;;;;;;;;5076041;28;20025;-82
2022/05/02 11:07:54;;;;;;;6.53;2.00;;;;;;;;;;5076088;28;20024;-83
2022/05/02 11:10:21;;;;;;;2.83;1.90;;;;;;;;;;5076874;28;20461;-82
2022/05/02 11:12:47;;;;;;;3.10;1.63;;;;;;;;;;5084719;28;20033;-83
2022/05/02 11:15:24;;;;;;;1.80;1.63;;;;;;;;;;5076032;28;20029;-82
2022/05/02 11:20:41;;;;;;;3.67;1.80;;;;;;;;;;5092526;28;20036;-83
2022/05/02 11:21:15;;;;;;;2.03;1.58;;;;;;;;;;5076713;28;20085;-82
2022/05/02 11:23:57;;;;;;;2.70;1.70;;;;;;;;;;5059068;28;20131;-81
2022/05/02 11:26:37;;;;;;;2.70;1.67;;;;;;;;;;5075515;28;20040;-81
2022/05/02 11:29:24;;;;;;;2.22;1.52;;;;;;;;;;5075846;28;20396;-83
2022/05/02 11:31:57;;;;;;;2.10;1.85;;;;;;;;;;5080602;28;20005;-82
2022/05/02 11:34:36;;;;;;;2.00;1.48;;;;;;;;;;5078110;28;20074;-79
2022/05/02 11:37:04;;;;;;;2.45;1.60;;;;;;;;;;5076403;28;20028;-82
2022/05/02 11:39:40;;;;;;;7.22;1.67;;;;;;;;;;5075404;28;20037;-79
2022/05/02 11:42:09;;;;;;;3.05;1.73;;;;;;;;;;5075061;28;20073;-82
2022/05/02 11:44:45;;;;;;;2.42;1.58;;;;;;;;;;5058806;28;20362;-80
2022/05/02 11:47:20;;;;;;;4.30;1.75;;;;;;;;;;5074797;28;20031;-82
2022/05/02 11:50:03;;;;;;;6.18;1.50;;;;;;;;;;5081471;28;20051;-82
2022/05/02 11:52:34;;;;;;;2.58;1.83;;;;;;;;;;5082692;28;20004;-83
2022/05/02 11:55:00;;;;;;;1.75;1.65;;;;;;;;;;5077558;28;20555;-82
2022/05/02 11:57:34;;;;;;;1.88;1.60;;;;;;;;;;5076821;28;20174;-84
2022/05/02 12:00:11;;;;;;;6.60;1.70;;;;;;;;;;5078808;28;20025;-81
2022/05/02 12:03:02;;;;;;;3.40;1.35;;;;;;;;;;5075498;28;20028;-82
2022/05/02 12:05:40;;;;;;;1.65;1.55;;;;;;;;;;5078384;28;20032;-82
2022/05/02 12:08:20;;;;;;;2.53;1.75;;;;;;;;;;5080661;28;20662;-81
2022/05/02 12:10:47;;;;;;;4.38;1.58;;;;;;;;;;5075882;28;20451;-81
2022/05/02 12:13:20;;;;;;;2.33;1.42;;;;;;;;;;5083229;28;20028;-83
2022/05/02 12:16:19;;;;;;;2.22;1.50;;;;;;;;;;5074336;28;20028;-84
2022/05/02 12:18:55;;;;;;;1.60;1.35;;;;;;;;;;5077277;28;20043;-85
2022/05/02 12:21:39;;;;;;;2.25;1.50;;;;;;;;;;5074623;28;20487;-83
2022/05/02 12:24:06;;;;;;;2.22;1.50;;;;;;;;;;5075974;28;20036;-82
2022/05/02 12:26:32;;;;;;;4.70;1.70;;;;;;;;;;5075618;28;20067;-80
2022/05/02 12:29:04;;;;;;;1.67;1.58;;;;;;;;;;5074441;28;20029;-82
2022/05/02 12:31:37;;;;;;;3.60;1.60;;;;;;;;;;5073898;28;20074;-81
2022/05/02 12:34:04;;;;;;;1.70;1.58;;;;;;;;;;5074938;28;20036;-84
2022/05/02 12:36:45;;;;;;;1.88;0.95;;;;;;;;;;5075871;28;20024;-80
2022/05/02 12:39:17;;;;;;;2.78;1.50;;;;;;;;;;5075943;28;20024;-82
2022/05/02 12:41:46;;;;;;;3.47;1.40;;;;;;;;;;5074172;28;20016;-82
2022/05/02 12:44:13;;;;;;;2.85;1.67;;;;;;;;;;5074593;28;20044;-84
2022/05/02 12:46:39;;;;;;;6.38;2.05;;;;;;;;;;5075255;28;20039;-82
2022/05/02 12:49:06;;;;;;;2.35;1.60;;;;;;;;;;5073793;28;20517;-79
2022/05/02 12:51:32;;;;;;;1.58;1.48;;;;;;;;;;5080535;28;20027;-80
2022/05/02 12:54:12;;;;;;;5.20;1.83;;;;;;;;;;5077058;28;20027;-84
2022/05/02 13:02:50;;;;;;;4.85;1.65;;;;;;;;;;5074011;28;20043;-81
2022/05/02 13:05:24;;;;;;;1.60;1.50;;;;;;;;;;5074054;28;20548;-81
2022/05/02 13:07:51;;;;;;;4.15;1.92;;;;;;;;;;5075600;28;20053;-81
2022/05/02 13:10:28;;;;;;;2.28;1.58;;;;;;;;;;5074481;28;20029;-81
2022/05/02 13:13:12;;;;;;;3.72;1.70;;;;;;;;;;5084452;28;20047;-81
2022/05/02 13:15:42;;;;;;;1.95;1.60;;;;;;;;;;5075372;28;20036;-82
2022/05/02 13:18:13;;;;;;;2.53;1.70;;;;;;;;;;5083144;28;20035;-81
2022/05/02 13:20:44;;;;;;;2.03;1.73;;;;;;;;;;5072465;28;20044;-81
2022/05/02 13:23:16;;;;;;;2.50;1.73;;;;;;;;;;5055457;28;20031;-82
2022/05/02 13:26:19;;;;;;;3.30;1.80;;;;;;;;;;5086832;28;20450;-81
2022/05/02 13:29:03;;;;;;;2.55;1.80;;;;;;;;;;5064760;28;20394;-81
2022/05/02 13:31:44;;;;;;;2.35;1.48;;;;;;;;;;5068161;28;20389;-81
2022/05/02 13:34:32;;;;;;;3.17;1.70;;;;;;;;;;5062152;28;20033;-82
2022/05/02 13:37:21;;;;;;;1.92;1.45;;;;;;;;;;5053247;28;20033;-81
2022/05/02 13:40:07;;;;;;;3.60;1.55;;;;;;;;;;5069668;28;20067;-82
2022/05/02 13:42:52;;;;;;;2.75;1.80;;;;;;;;;;5054106;28;20025;-83
2022/05/02 13:45:42;;;;;;;2.50;1.55;;;;;;;;;;5053517;28;20029;-81
2022/05/02 13:48:20;;;;;;;7.38;2.00;;;;;;;;;;5054803;28;20024;-80
2022/05/02 13:50:52;;;;;;;2.80;1.50;;;;;;;;;;5054098;28;20082;-81
2022/05/02 13:53:44;;;;;;;3.90;2.00;;;;;;;;;;5045545;28;20045;-81
2022/05/02 13:56:18;;;;;;;2.38;1.40;;;;;;;;;;5053113;28;20132;-80
2022/05/02 13:59:05;;;;;;;2.25;1.67;;;;;;;;;;5053127;28;20128;-81
2022/05/02 14:01:43;;;;;;;2.90;1.83;;;;;;;;;;5053757;28;20047;-81
2022/05/02 14:04:38;;;;;;;2.63;1.60;;;;;;;;;;5053305;28;20040;-81
2022/05/02 14:07:11;;;;;;;2.20;1.60;;;;;;;;;;5055850;28;20071;-82
2022/05/02 14:09:55;;;;;;;1.95;1.50;;;;;;;;;;5053913;28;20102;-81
2022/05/02 14:12:23;;;;;;;2.85;1.73;;;;;;;;;;5038015;28;20029;-81
2022/05/02 14:15:12;;;;;;;2.78;1.75;;;;;;;;;;5059710;28;20033;-81
2022/05/02 14:17:51;;;;;;;1.70;1.55;;;;;;;;;;5053880;28;20087;-80
2022/05/02 14:20:23;;;;;;;2.72;1.95;;;;;;;;;;5052792;28;20029;-81
2022/05/02 14:22:59;;;;;;;3.17;1.92;;;;;;;;;;5053834;28;20461;-81
2022/05/02 14:25:39;;;;;;;6.93;1.80;;;;;;;;;;5052592;28;20029;-79
2022/05/02 14:28:17;;;;;;;3.42;1.75;;;;;;;;;;5053874;28;20496;-82
2022/05/02 14:30:43;;;;;;;2.42;1.52;;;;;;;;;;5052492;28;20033;-81
2022/05/02 14:33:13;;;;;;;2.78;1.65;;;;;;;;;;5056720;28;20017;-79
2022/05/02 14:35:42;;;;;;;3.10;1.90;;;;;;;;;;5042514;28;20056;-83
2022/05/02 14:38:15;;;;;;;3.15;1.70;;;;;;;;;;5052999;28;20507;-82
2022/05/02 14:40:45;;;;;;;2.33;1.73;;;;;;;;;;5057492;28;20431;-82
2022/05/02 14:43:13;;;;;;;3.22;1.90;;;;;;;;;;5073044;28;20049;-81
2022/05/02 14:45:41;;;;;;;3.63;1.80;;;;;;;;;;5056551;28;20378;-82
2022/05/02 14:48:07;;;;;;;2.08;1.83;;;;;;;;;;5056352;28;20462;-80
2022/05/02 14:50:33;;;;;;;2.50;1.80;;;;;;;;;;5056244;28;20450;-80
2022/05/02 14:53:04;;;;;;;1.88;1.67;;;;;;;;;;5072830;28;20035;-79
2022/05/02 14:55:30;;;;;;;4.47;2.40;;;;;;;;;;5044515;28;20499;-82
2022/05/02 14:57:55;;;;;;;4.57;2.65;;;;;;;;;;5056543;28;20116;-83
2022/05/02 15:00:23;;;;;;;4.15;2.00;;;;;;;;;;5055733;28;20486;-82
2022/05/02 15:02:49;;;;;;;6.50;1.95;;;;;;;;;;5056222;28;20028;-80
2022/05/02 15:05:17;;;;;;;5.00;1.90;;;;;;;;;;5055842;28;20351;-81
2022/05/02 15:08:00;;;;;;;3.22;1.92;;;;;;;;;;5056046;28;20426;-82
2022/05/02 15:11:12;;;;;;;3.40;1.80;;;;;;;;;;5056692;28;20032;-82
2022/05/02 15:13:47;;;;;;;2.88;2.10;;;;;;;;;;5056811;28;20038;-81
2022/05/02 15:17:17;;;;;;;3.72;1.80;;;;;;;;;;5060128;28;20098;-80
2022/05/02 15:20:06;;;;;;;5.38;1.85;;;;;;;;;;5055768;28;20029;-84
2022/05/02 15:22:40;;;;;;;2.38;1.88;;;;;;;;;;5056747;28;20024;-81
2022/05/02 15:25:07;;;;;;;4.53;2.10;;;;;;;;;;5039164;28;20025;-80
2022/05/02 15:38:59;;;;;;;2.33;1.70;;;;;;;;;;5056376;28;20079;-82
2022/05/02 15:41:40;;;;;;;2.70;1.80;;;;;;;;;;5056696;28;20063;-82
2022/05/02 15:44:09;;;;;;;2.22;1.77;;;;;;;;;;5056400;28;20351;-81
2022/05/02 15:46:44;;;;;;;2.60;1.70;;;;;;;;;;5055048;28;20041;-81
2022/05/02 15:49:11;;;;;;;2.45;1.80;;;;;;;;;;5054783;28;20098;-81
2022/05/02 15:52:05;;;;;;;3.22;1.85;;;;;;;;;;5039277;28;20123;-80
2022/05/02 15:54:31;;;;;;;4.75;2.63;;;;;;;;;;5073417;28;20037;-75
2022/05/02 15:57:11;;;;;;;16.80;8.98;;;;;;;;;;5060836;28;20028;-84
2022/05/02 15:59:42;;;;;;;3.63;2.90;;;;;;;;;;5056553;28;20032;-79
2022/05/02 16:02:17;;;;;;;12.02;7.18;;;;;;;;;;5054936;28;20049;-81